• Join FlightAware (Why Join?)
  • Login
  • US Flag 
10:49PM EDT


 

Airport Tracker/Info


-or-


 

Live Flight TrackerFlight Track Log ✈ UAL1636 ✈ 12-Apr-2013 ✈ KORD - KSMF

Flight Track Log - Related Links

Times and Time Zones

All times are in EDT time to prevent confusion due to time zone crossing. See the UAL1636 flight status page for this flight to view local times or setup timezone preferences in your user account.

Time Position Orientation Groundspeed Altitude Reporting Facility
EDT Latitude Longitude Course Direction KTS MPH feet Rate Location/Type
11:29AM 41.9940 -87.9370 322° Northwest 170 196 1,500  Level FlightAware
11:29AM 42.0030 -87.9490 315° West 164 189 2,200 2,100 Climbing FlightAware
11:30AM 42.0090 -87.9720 289° West 182 209 2,900 1,800 Climbing FlightAware
11:30AM 42.0200 -88.0080 292° West 209 241 3,900 1,920 Climbing FlightAware
11:31AM 42.0280 -88.0370 290° West 228 262 4,700 2,280 Climbing FlightAware
11:31AM 42.0370 -88.0760 287° West 246 283 5,800 2,700 Climbing FlightAware
11:32AM 42.0490 -88.1240 289° West 252 290 7,400 2,580 Climbing FlightAware
11:32AM 42.0570 -88.1620 286° West 263 303 8,400 2,580 Climbing FlightAware
11:32AM 42.0700 -88.2130 289° West 277 319 9,800 3,000 Climbing FlightAware
11:33AM 42.0720 -88.2290 280° West 270 311 10,400 2,880 Climbing FlightAware
11:33AM 42.0700 -88.2980 268° West 280 322 12,200 2,040 Climbing FlightAware
11:34AM 42.0720 -88.3830 272° West 322 371 13,300 1,860 Climbing FlightAware
11:35AM 42.0760 -88.4550 274° West 333 383 14,700 2,640 Climbing FlightAware
11:35AM 42.0800 -88.5240 274° West 330 380 16,400 2,520 Climbing FlightAware
11:36AM 42.0860 -88.5960 276° West 338 389 17,700 2,160 Climbing FlightAware
11:37AM 42.0930 -88.6940 276° West 351 404 19,300 2,220 Climbing FlightAware
11:38AM 42.1040 -88.8340 276° West 354 407 21,800 2,100 Climbing FlightAware
11:38AM 42.1120 -88.9230 277° West 353 406 23,000 1,080 Climbing FlightAware
11:39AM 42.1200 -89.0030 278° West 355 409 23,300 1,200 Climbing FlightAware
11:40AM 42.1290 -89.0930 278° West 358 412 24,600 1,800 Climbing FlightAware
11:40AM 42.1380 -89.2000 277° West 365 420 25,900 1,500 Climbing FlightAware
11:41AM 42.1470 -89.2920 278° West 373 429 26,800 1,260 Climbing FlightAware
11:42AM 42.1600 -89.4190 278° West 384 442 27,900 1,080 Climbing FlightAware
11:43AM 42.1700 -89.5150 278° West 392 451 28,600 1,200 Climbing FlightAware
11:43AM 42.1800 -89.6140 278° West 395 455 29,500 1,260 Climbing FlightAware
11:44AM 42.1910 -89.7260 278° West 397 457 30,400 1,200 Climbing FlightAware
11:45AM 42.2000 -89.8230 277° West 399 459 31,200 900 Climbing FlightAware
11:46AM 42.2140 -89.9550 278° West 407 468 31,900 840 Climbing FlightAware
11:46AM 42.2260 -90.0620 279° West 410 472 32,600 1,200 Climbing FlightAware
11:47AM 42.2370 -90.1730 278° West 400 460 33,600 1,260 Climbing FlightAware
11:48AM 42.2390 -90.2680 272° West 397 457 34,300 840 Climbing FlightAware
11:48AM 42.2420 -90.3800 272° West 401 461 34,800 480 Climbing FlightAware
11:49AM 42.2460 -90.4790 273° West 411 473 35,000 300 Climbing FlightAware
11:50AM 42.2490 -90.5890 272° West 417 480 35,300 660 Climbing FlightAware
11:51AM 42.2520 -90.7030 272° West 412 474 36,000 480 Climbing FlightAware
11:51AM 42.2550 -90.8050 272° West 413 475 36,000  Level FlightAware
11:52AM 42.2580 -90.9180 272° West 413 475 36,000  Level FlightAware
11:53AM 42.2600 -91.0200 272° West 412 474 36,000  Level FlightAware
11:53AM 42.2630 -91.1370 272° West 411 473 36,000  Level FlightAware
11:54AM 42.2650 -91.2350 272° West 409 471 36,000  Level FlightAware
11:55AM 42.2680 -91.3460 272° West 408 470 36,000  Level FlightAware
11:56AM 42.2710 -91.4830 272° West 406 467 36,000  Level FlightAware
11:56AM 42.2740 -91.5900 272° West 403 464 36,000  Level FlightAware
11:57AM 42.2760 -91.7020 271° West 402 463 36,000  Level FlightAware
11:58AM 42.2770 -91.7920 271° West 402 463 36,000  Level FlightAware
11:58AM 42.2790 -91.8960 272° West 404 465 36,000  Level FlightAware
11:59AM 42.2810 -92.0080 271° West 409 471 36,000  Level FlightAware
12:00PM 42.2820 -92.1160 271° West 409 471 36,000  Level FlightAware
12:01PM 42.2840 -92.2230 271° West 409 471 36,000  Level FlightAware
12:01PM 42.2860 -92.3310 271° West 414 476 36,000  Level FlightAware
12:02PM 42.2870 -92.4260 271° West 416 479 36,000  Level FlightAware
12:03PM 42.2880 -92.5550 271° West 418 481 36,000  Level FlightAware
12:03PM 42.2890 -92.6640 271° West 420 483 36,000  Level FlightAware
12:05PM 42.2900 -92.8170 271° West 421 484 36,000  Level FlightAware
12:05PM 42.2930 -92.9890 271° West 423 487 36,000  Level FlightAware
12:06PM 42.2930 -93.1190 270° West 423 487 36,000  Level FlightAware
12:07PM 42.2930 -93.2090 270° West 423 487 36,000  Level FlightAware
12:08PM 42.2930 -93.2990 270° West 423 487 36,000  Level FlightAware
12:08PM 42.2950 -93.4430 271° West 419 482 36,000  Level FlightAware
12:09PM 42.2950 -93.5840 270° West 418 481 36,000  Level FlightAware
12:10PM 42.2950 -93.6730 270° West 418 481 36,000  Level FlightAware
12:11PM 42.2950 -93.7620 270° West 418 481 36,000  Level FlightAware
12:11PM 42.2950 -93.8730 270° West 418 481 36,000  Level FlightAware
12:12PM 42.2950 -93.9620 270° West 418 481 36,000  Level FlightAware
12:13PM 42.2950 -94.0500 270° West 418 481 36,000  Level FlightAware
12:13PM 42.2950 -94.1390 270° West 418 481 36,000  Level FlightAware
12:14PM 42.2950 -94.2280 270° West 418 481 36,000  Level FlightAware
12:15PM 42.2950 -94.3390 270° West 418 481 36,000  Level FlightAware
12:16PM 42.2950 -94.4280 270° West 418 481 36,000  Level FlightAware
12:16PM 42.2950 -94.5170 270° West 418 481 36,000  Level FlightAware
12:17PM 42.2950 -94.6060 270° West 418 481 36,000  Level FlightAware
12:18PM 42.2950 -94.6950 270° West 418 481 36,000  Level FlightAware
12:18PM 42.2950 -94.8060 270° West 418 481 36,000  Level FlightAware
12:19PM 42.2903 -95.0811 270° West 412 474 36,000  Level Minneapolis Center
12:20PM 42.2892 -95.2353 269° West 412 474 36,000  Level Minneapolis Center
12:21PM 42.2872 -95.3906 269° West 413 475 36,000  Level Minneapolis Center
12:22PM 42.2853 -95.5447 269° West 413 475 36,000  Level Minneapolis Center
12:23PM 42.2822 -95.6986 269° West 412 474 36,000  Level Minneapolis Center
12:24PM 42.2789 -95.8519 268° West 412 474 36,000  Level Minneapolis Center
12:25PM 42.2769 -96.0136 269° West 421 484 36,000  Level Minneapolis Center
12:26PM 42.2728 -96.1961 268° West 415 478 36,000  Level Minneapolis Center
12:27PM 42.2697 -96.3522 269° West 414 476 36,000  Level Minneapolis Center
12:28PM 42.2667 -96.5078 269° West 415 478 36,000  Level Minneapolis Center
12:29PM 42.2631 -96.6642 268° West 416 479 36,000  Level Minneapolis Center
12:30PM 42.2592 -96.8208 268° West 418 481 36,000  Level Minneapolis Center
12:31PM 42.2536 -96.9783 267° West 419 482 36,000  Level Minneapolis Center
12:32PM 42.2489 -97.1664 268° West 420 483 36,000  Level Minneapolis Center
12:33PM 42.2444 -97.3225 268° West 419 482 36,000  Level Minneapolis Center
12:34PM 42.2394 -97.4786 268° West 418 481 36,000  Level Minneapolis Center
12:35PM 42.2347 -97.6367 268° West 420 483 36,000  Level Minneapolis Center
12:36PM 42.2306 -97.7944 268° West 421 484 36,000  Level Minneapolis Center
12:37PM 42.2233 -97.9511 266° West 420 483 36,000  Level Minneapolis Center
12:38PM 42.2181 -98.1039 267° West 414 476 36,000  Level Minneapolis Center
12:39PM 42.2106 -98.2850 267° West 406 467 36,000  Level Minneapolis Center
12:40PM 42.2047 -98.4358 267° West 404 465 36,000  Level Minneapolis Center
12:42PM 42.1997 -98.5839 267° West 400 460 36,000  Level Minneapolis Center
12:43PM 42.1922 -98.7347 266° West 401 461 36,000  Level Minneapolis Center
12:44PM 42.1861 -98.8850 267° West 402 463 36,000  Level Minneapolis Center
12:45PM 42.1794 -99.0339 267° West 401 461 36,000  Level Minneapolis Center
12:46PM 42.1728 -99.1853 267° West 404 465 36,000  Level Minneapolis Center
12:47PM 42.1647 -99.3703 267° West 410 472 36,000  Level Minneapolis Center
12:47PM 42.1636 -99.4011 267° West 411 473 36,000  Level Denver Center
12:48PM 42.1539 -99.5881 266° West 417 480 36,000  Level Denver Center
12:49PM 42.1461 -99.7436 266° West 415 478 36,000  Level Denver Center
12:50PM 42.1389 -99.8919 266° West 416 479 36,000  Level Denver Center
12:51PM 42.1286 -100.0642 265° West 415 478 36,000  Level Denver Center
12:52PM 42.1214 -100.2119 266° West 415 478 36,000  Level Denver Center
12:53PM 42.1117 -100.3844 266° West 415 478 36,000  Level Denver Center
12:54PM 42.1036 -100.5292 266° West 408 470 36,000  Level Denver Center
12:55PM 42.0931 -100.6967 265° West 404 465 36,000  Level Denver Center
12:56PM 42.0853 -100.8408 266° West 404 465 36,000  Level Denver Center
12:57PM 42.0756 -101.0117 266° West 409 471 36,000  Level Denver Center
12:58PM 42.0656 -101.1550 265° West 406 467 36,000  Level Denver Center
12:59PM 42.0547 -101.3231 265° West 405 466 36,000  Level Denver Center
01:06PM 41.9898 -102.2650 265° West 397 457 36,000  Level FlightAware ADS-B
01:06PM 41.9843 -102.3400 264° West 393 452 36,000  Level FlightAware ADS-B
01:07PM 41.9790 -102.4120 264° West 392 451 36,000  Level FlightAware ADS-B
01:07PM 41.9720 -102.5050 264° West 390 449 36,000  Level FlightAware ADS-B
01:08PM 41.9666 -102.5780 264° West 389 448 36,000  Level FlightAware ADS-B
01:08PM 41.9610 -102.6500 264° West 389 448 36,000  Level FlightAware ADS-B
01:09PM 41.9552 -102.7260 264° West 389 448 36,000  Level FlightAware ADS-B
01:09PM 41.9496 -102.7980 264° West 388 447 36,000  Level FlightAware ADS-B
01:10PM 41.9438 -102.8710 264° West 390 449 36,000  Level FlightAware ADS-B
01:10PM 41.9380 -102.9440 264° West 395 455 36,000  Level FlightAware ADS-B
01:11PM 41.9320 -103.0190 264° West 400 460 36,000  Level FlightAware ADS-B
01:11PM 41.9260 -103.0950 264° West 404 465 36,000  Level FlightAware ADS-B
01:12PM 41.9199 -103.1710 264° West 413 475 36,000 480 Level FlightAware ADS-B
01:12PM 41.9134 -103.2510 264° West 412 474 36,500 660 Climbing FlightAware ADS-B
01:13PM 41.9070 -103.3290 264° West 416 479 36,700 540 Climbing FlightAware ADS-B
01:13PM 41.9005 -103.4060 264° West 416 479 37,100 960 Climbing FlightAware ADS-B
01:14PM 41.8940 -103.4830 264° West 410 472 37,700 900 Climbing FlightAware ADS-B
01:14PM 41.8887 -103.5590 265° West 405 466 38,000 240 Climbing FlightAware ADS-B
01:15PM 41.8840 -103.6360 265° West 407 468 38,000  Level FlightAware ADS-B
01:15PM 41.8789 -103.7110 265° West 406 467 38,000  Level FlightAware ADS-B
01:16PM 41.8733 -103.7890 265° West 409 471 38,000  Level FlightAware ADS-B
01:17PM 41.8678 -103.8660 265° West 412 474 38,000  Level FlightAware ADS-B
01:17PM 41.8622 -103.9420 264° West 413 475 38,000  Level FlightAware ADS-B
01:18PM 41.8566 -104.0210 265° West 413 475 38,000  Level FlightAware ADS-B
01:18PM 41.8511 -104.0970 264° West 414 476 38,000  Level FlightAware ADS-B
01:19PM 41.8454 -104.1750 264° West 416 479 38,000  Level FlightAware ADS-B
01:19PM 41.8398 -104.2530 265° West 417 480 38,000  Level FlightAware ADS-B
01:20PM 41.8324 -104.3520 264° West 419 482 38,000  Level FlightAware ADS-B
01:20PM 41.8265 -104.4300 264° West 419 482 38,000  Level FlightAware ADS-B
01:21PM 41.8200 -104.5150 264° West 421 484 38,000  Level FlightAware ADS-B
01:21PM 41.8139 -104.5950 264° West 422 486 38,000  Level FlightAware ADS-B
01:22PM 41.8076 -104.6750 264° West 423 487 38,000  Level FlightAware ADS-B
01:22PM 41.8015 -104.7550 264° West 422 486 38,000 -540 Level FlightAware ADS-B
01:23PM 41.7952 -104.8330 264° West 421 484 37,500 -1,500 Descending FlightAware ADS-B
01:23PM 41.7888 -104.9110 264° West 416 479 36,500 -1,500 Descending FlightAware ADS-B
01:24PM 41.7831 -104.9870 264° West 410 472 36,000 -540 Descending FlightAware ADS-B
01:24PM 41.7770 -105.0650 264° West 410 472 36,000  Level FlightAware ADS-B
01:25PM 41.7706 -105.1440 264° West 410 472 36,000  Level FlightAware ADS-B
01:26PM 41.7610 -105.2460 263° West 410 472 36,000  Level FlightAware
01:26PM 41.7563 -105.3140 265° West 410 472 36,000  Level FlightAware ADS-B
01:27PM 41.7450 -105.4530 264° West 413 475 36,000  Level FlightAware
01:28PM 41.7360 -105.5590 264° West 414 476 36,000  Level FlightAware
01:29PM 41.7230 -105.7020 263° West 415 478 36,000  Level FlightAware
01:29PM 41.7140 -105.8120 264° West 415 478 36,000  Level FlightAware
01:30PM 41.7060 -105.8980 263° West 412 474 36,000  Level FlightAware
01:31PM 41.6940 -106.0300 263° West 406 467 36,000  Level FlightAware
01:31PM 41.6860 -106.1230 263° West 404 465 36,000  Level FlightAware
01:32PM 41.6760 -106.2290 263° West 405 466 36,000  Level FlightAware
01:33PM 41.6660 -106.3400 263° West 404 465 36,000  Level FlightAware
01:34PM 41.6530 -106.4660 262° West 404 465 36,000  Level FlightAware
01:34PM 41.6440 -106.5670 263° West 406 467 36,000  Level FlightAware
01:35PM 41.6350 -106.6520 262° West 406 467 36,000  Level FlightAware
01:36PM 41.6260 -106.7370 262° West 406 467 36,000  Level FlightAware
01:37PM 41.6150 -106.8420 262° West 406 467 36,000  Level FlightAware
01:37PM 41.6060 -106.9270 262° West 406 467 36,000  Level FlightAware
01:38PM 41.5970 -107.0120 262° West 406 467 36,000  Level FlightAware
01:39PM 41.5880 -107.0960 262° West 406 467 36,000  Level FlightAware
01:39PM 41.5800 -107.1810 263° West 406 467 36,000  Level FlightAware
01:40PM 41.5680 -107.2860 261° West 406 467 36,000  Level FlightAware
01:41PM 41.5590 -107.3710 262° West 406 467 36,000  Level FlightAware
01:41PM 41.5510 -107.4550 263° West 406 467 36,000  Level FlightAware
01:42PM 41.5420 -107.5400 262° West 406 467 36,000  Level FlightAware
01:43PM 41.5330 -107.6240 262° West 406 467 36,000  Level FlightAware
01:44PM 41.5220 -107.7300 262° West 406 467 36,000  Level FlightAware
01:44PM 41.5008 -107.9908 262° West 410 472 36,000  Level Salt Lake Center
01:45PM 41.4817 -108.1328 260° West 411 473 36,000  Level Denver Center
01:46PM 41.4558 -108.3019 259° West 415 478 36,000  Level Salt Lake Center
01:47PM 41.4347 -108.4458 259° West 414 476 36,000  Level Salt Lake Center
01:48PM 41.4097 -108.6147 259° West 415 478 36,000  Level Salt Lake Center
01:49PM 41.3875 -108.7597 259° West 417 480 36,000  Level Salt Lake Center
01:50PM 41.3619 -108.9297 259° West 418 481 36,000  Level Salt Lake Center
01:51PM 41.3397 -109.0764 259° West 414 476 36,000  Level Salt Lake Center
01:52PM 41.3156 -109.2236 258° West 416 479 36,000 660 Level Salt Lake Center
01:53PM 41.2894 -109.3922 258° West 415 478 37,400 960 Climbing Salt Lake Center
01:54PM 41.2681 -109.5283 258° West 398 458 38,000 240 Climbing Salt Lake Center
01:55PM 41.2425 -109.6878 258° West 396 456 38,000  Level Salt Lake Center
01:56PM 41.2203 -109.8267 258° West 400 460 38,000  Level Salt Lake Center
01:57PM 41.1981 -109.9647 258° West 400 460 38,000  Level Salt Lake Center
02:03PM 41.0490 -110.8560 258° West 415 478 38,000  Level FlightAware
02:07PM 40.9630 -111.3500 257° West 413 475 38,000  Level FlightAware
02:11PM 40.8570 -111.9440 257° West 416 479 38,000  Level FlightAware
02:12PM 40.8460 -112.0560 263° West 415 478 38,000  Level FlightAware
02:12PM 40.8390 -112.1580 265° West 419 482 38,000  Level FlightAware
02:13PM 40.8320 -112.2730 265° West 423 487 38,000  Level FlightAware
02:14PM 40.8250 -112.3770 265° West 424 488 38,000  Level FlightAware
02:14PM 40.8180 -112.4800 265° West 425 489 38,000  Level FlightAware
02:15PM 40.8100 -112.5960 265° West 424 488 38,000  Level FlightAware
02:16PM 40.8040 -112.6980 266° West 421 484 38,000  Level FlightAware
02:16PM 40.7960 -112.8000 264° West 423 487 38,000  Level FlightAware
02:17PM 40.7880 -112.9160 265° West 424 488 38,000  Level FlightAware
02:18PM 40.7810 -113.0190 265° West 425 489 38,000  Level FlightAware
02:19PM 40.7730 -113.1340 265° West 425 489 38,000  Level FlightAware
02:19PM 40.7650 -113.2390 264° West 426 490 38,000  Level FlightAware
02:20PM 40.7570 -113.3530 265° West 425 489 38,000  Level FlightAware
02:21PM 40.7490 -113.4600 264° West 424 488 38,000  Level FlightAware
02:21PM 40.7410 -113.5680 264° West 423 487 38,000  Level FlightAware
02:22PM 40.7320 -113.6840 264° West 422 486 38,000  Level FlightAware
02:23PM 40.7250 -113.7850 265° West 420 483 38,000  Level FlightAware
02:24PM 40.7200 -113.9060 267° West 420 483 38,000  Level FlightAware
02:24PM 40.7160 -114.0150 267° West 420 483 38,000  Level FlightAware
02:25PM 40.7130 -114.1020 267° West 420 483 38,000  Level FlightAware
02:26PM 40.7090 -114.1890 267° West 420 483 38,000  Level FlightAware
02:26PM 40.7060 -114.2760 267° West 420 483 38,000  Level FlightAware
02:27PM 40.7020 -114.3630 267° West 420 483 38,000  Level FlightAware
02:28PM 40.6980 -114.4720 267° West 420 483 38,000  Level FlightAware
02:29PM 40.6940 -114.5590 267° West 420 483 38,000  Level FlightAware
02:29PM 40.6910 -114.6460 267° West 420 483 38,000  Level FlightAware
02:30PM 40.6870 -114.7330 267° West 420 483 38,000  Level FlightAware
02:31PM 40.6840 -114.8200 267° West 420 483 38,000  Level FlightAware
02:31PM 40.6800 -114.9290 267° West 420 483 38,000  Level FlightAware
02:32PM 40.6760 -115.0160 267° West 420 483 38,000  Level FlightAware
02:33PM 40.6730 -115.1030 267° West 420 483 38,000  Level FlightAware
02:34PM 40.6525 -115.4769 267° West 429 494 38,000  Level Oakland Center
02:35PM 40.6433 -115.6247 265° West 428 493 38,000  Level Salt Lake Center
02:36PM 40.6344 -115.7728 266° West 426 490 38,000  Level Salt Lake Center
02:37PM 40.6253 -115.9467 266° West 426 490 38,000  Level Salt Lake Center
02:38PM 40.6181 -116.0950 266° West 425 489 38,000  Level Salt Lake Center
02:39PM 40.6081 -116.2686 266° West 427 491 38,000  Level Salt Lake Center
02:40PM 40.5997 -116.4172 266° West 426 490 38,000  Level Salt Lake Center
02:41PM 40.5897 -116.5867 266° West 421 484 38,000  Level Salt Lake Center
02:42PM 40.5808 -116.7311 265° West 417 480 38,000  Level Salt Lake Center
02:43PM 40.5708 -116.8978 266° West 416 479 38,000  Level Salt Lake Center
02:45PM 40.4953 -117.2050 252° West 433 498 38,000  Level Salt Lake Center
02:46PM 40.4581 -117.3469 251° West 431 496 38,000  Level Salt Lake Center
02:47PM 40.4136 -117.5111 250° West 430 495 38,000  Level Salt Lake Center
02:48PM 40.3767 -117.6547 251° West 436 502 38,000  Level Oakland Center
02:49PM 40.3392 -117.7969 251° West 433 498 38,000  Level Oakland Center
02:50PM 40.2936 -117.9642 250° West 436 502 38,000  Level Oakland Center
02:51PM 40.2528 -118.1175 251° West 440 506 38,000  Level Oakland Center
02:52PM 40.2114 -118.2675 250° West 440 506 38,000  Level Oakland Center
02:53PM 40.1697 -118.4178 250° West 442 509 38,000  Level Oakland Center
02:54PM 40.1275 -118.5678 250° West 442 509 38,000  Level Oakland Center
02:55PM 40.0572 -118.7058 236° Southwest 458 527 38,000 -420 Level Oakland Center
03:01PM 39.6270 -119.4840 236° Southwest 471 542 35,300 -600 Descending FlightAware
03:02PM 39.5880 -119.5560 235° Southwest 471 542 34,100 -1,980 Descending FlightAware
03:02PM 39.5370 -119.6460 234° Southwest 472 543 32,200 -2,760 Descending FlightAware
03:03PM 39.4740 -119.7580 234° Southwest 462 532 30,200 -2,520 Descending FlightAware
03:04PM 39.4320 -119.8300 233° Southwest 452 520 28,900 -2,340 Descending FlightAware
03:05PM 39.3700 -119.9390 234° Southwest 439 505 26,900 -2,100 Descending FlightAware
03:05PM 39.3410 -119.9900 234° Southwest 431 496 26,000 -1,920 Descending FlightAware
03:06PM 39.2920 -120.0760 234° Southwest 421 484 24,500 -2,280 Descending FlightAware
03:06PM 39.2460 -120.1560 233° Southwest 409 471 23,000 -1,800 Descending FlightAware
03:07PM 39.2050 -120.2270 233° Southwest 399 459 21,800 -2,700 Descending FlightAware
03:08PM 39.1450 -120.4070 247° West 368 423 18,800 -3,360 Descending FlightAware
03:09PM 39.1290 -120.4710 252° West 364 419 17,600 -2,040 Descending FlightAware
03:09PM 39.1030 -120.5720 252° West 354 407 16,100 -1,380 Descending FlightAware
03:11PM 39.0680 -120.7090 252° West 347 399 14,900 -1,380 Descending FlightAware
03:12PM 39.0340 -120.8430 252° West 330 380 12,900 -1,920 Descending FlightAware
03:12PM 39.0110 -120.9290 251° West 328 377 11,300 -1,920 Descending FlightAware
03:13PM 38.9920 -121.0040 252° West 320 368 10,200 -1,140 Descending FlightAware
03:14PM 38.9720 -121.0800 251° West 290 334 9,700 -960 Descending FlightAware
03:14PM 38.9610 -121.1210 251° West 287 330 9,100 -1,440 Descending FlightAware
03:15PM 38.9490 -121.1690 252° West 283 326 8,400 -1,440 Descending FlightAware
03:15PM 38.9380 -121.2100 251° West 280 322 7,800 -1,440 Descending FlightAware
03:16PM 38.9250 -121.2580 251° West 277 319 7,100 -1,380 Descending FlightAware
03:16PM 38.9190 -121.2800 251° West 274 315 6,800 -1,380 Descending FlightAware
03:16PM 38.9100 -121.3180 253° West 271 312 6,200 -1,440 Descending FlightAware
03:17PM 38.8980 -121.3650 252° West 263 303 5,500 -840 Descending FlightAware
03:17PM 38.8880 -121.4060 253° West 229 264 5,400 -120 Descending FlightAware
03:18PM 38.8800 -121.4370 252° West 207 238 5,400 -780 Level FlightAware
03:18PM 38.8710 -121.4700 251° West 204 235 4,700 -1,440 Descending FlightAware
03:19PM 38.8620 -121.4990 248° West 204 235 4,100 -1,320 Descending FlightAware
03:19PM 38.8500 -121.5320 245° Southwest 194 223 3,500 -1,080 Descending FlightAware
03:19PM 38.8420 -121.5450 232° Southwest 188 216 3,300 -1,020 Descending FlightAware
03:20PM 38.8310 -121.5550 215° Southwest 193 222 3,000 -1,200 Descending FlightAware
03:20PM 38.8240 -121.5610 214° Southwest 192 221 2,800 -1,680 Descending FlightAware
03:20PM 38.8000 -121.5780 209° Southwest 187 215 1,900 -1,500 Descending FlightAware
03:21PM 38.7950 -121.5790 189° South 178 205 1,800 -900 Descending FlightAware
03:21PM 38.7670 -121.5790 180° South 166 191 1,300 -900 Descending FlightAware
03:22PM 38.7470 -121.5790 180° South 150 173 900 -900 Descending FlightAware
03:22PM 38.7210 -121.5800 182° South 156 180 400 -1,080 Descending FlightAware
03:22PM 38.7130 -121.5800 180° South 157 181 200 -540 Descending FlightAware
03:23PM 38.7000 -121.5800 180° South 144 166 100 -240 Descending FlightAware